Page Field
KFMY : now visible

Airfield :











YOU CAN JOIN US ON...

 
LOGIN :

Register | Disclaimer

   EN    FR    IT 

 









Legend :    VFR   Marginal VFR   IFR   Intensive IFR   Very Intensive IFR
Visi :
Ceiling :
>= 8 km
>= 3000ft
5 to 8 km
1000 to 3000 ft
1500m to 5 km
500 to 1000 ft
800 to 1500m
200 to 500 ft
< 800m
< 200 ft
Symbols :   Thunderstorms  Fog  Heavy snow  Heavy precipitations  Wind > 20 kt






- Airport Elevation : 17 ft


KFMY - Page Field

CURRENT METAR :
  • 271553Z 24006KT 10SM SCT040 SCT047 BKN060 32/23 A3003 RMK AO2 SLP171 T03220228

EXPIRED METARs :
  • 271453Z 20004KT 10SM SCT027 31/23 A3002 RMK AO2 SLP167 T03110228 51016
  • 271353Z 13003KT 10SM CLR 29/23 A3000 RMK AO2 SLP161 T02890233
  • 271253Z 09004KT 10SM CLR 27/23 A2999 RMK AO2 SLP156 T02720228
  • 271153Z 13004KT 10SM CLR 24/22 A2997 RMK AO2 SLP150 T02440222 10261 20233 53013

TAF KFMY
Valid from the 27 at 12:00 until the 28 at 12:00 UTC


271121Z 2712/2812 VRB03KT P6SM SKC
FM271400 23006KT P6SM SCT030
FM271800 26011KT P6SM FEW050 SCT250
FM280200 VRB03KT P6SM BKN250
KZMA FIR / North America



MET'MAP, your aeronautical weather chart ! - Copyright ORBIFLY December 2007 - Disclaimer

ORBIFLY MET'MAP TEAM :

Programming & Development : Alexandra Zaïnal
Original concept : Baudouin d'Aumeries
Technical & hardware support : Manuel Goepfert
Assistance : Marc-Olivier Méhu




SOURCES & CREDITS :

   NOAA       Earth
Advisory